If you wish to contribute or participate in the discussions about articles you are invited to join SKYbrary as a registered user

 Actions

Krabi Airport

From SKYbrary Wiki

VTSG
Airport
ICAO: VTSG
Summary
Name Krabi Airport
Region Asia and Pacific
Territory Thailand TH.gif
Location Krabi, Thailand
Serving
Coordinates 8° 5' 49.22" N, 98° 58' 41.92" E
Runways
Designator Length Width Surface ROPS
14/32 3000 m9,842.52 ft <br /> 45 m147.638 ft <br /> ASP /


METAR
Observation VTSG 271200Z 27003KT 220V300 9999 FEW020 BKN100 26/24 Q1007 NOSIG
Station KRABI
Date/Time 27 September 2021 12:00:00
Wind direction 270°
Wind speed 03 kts
Lowest cloud amount few clouds
Temperature 26°C
Dew point 24°C
Humidity 88%
QNH 1007 hPa
Weather condition n/a

WX
Tag(s) Cumulonimbus

Krabi Airport

ICAO: VTSG IATA: KBV

Description

Airport serving Krabi, Thailand.

Climatology

Tropical Monsoon climate (Köppen climate classification Am) - monthly mean temperatures above 18°C64.4 °F <br />291.15 K <br />524.07 °R <br /> in every month of the year and features wet and dry seasons. A tropical monsoon climate typically features less pronounced dry seasons than a tropical savanna climate and see less variance in temperatures during the course of the year. The driest month nearly always occurs at or soon after the "winter" solstice.

Maps

Terrain

Loading map...

Airport Layout

Loading map...


Accidents & Serious Incidents at or in vicinity of VTSG

None on SKYbrary